sensor_id;sensor_type;location;lat;lon;timestamp;pressure;altitude;pressure_sealevel;temperature
20058;BMP180;10189;49.546;7.906;2022-12-18T00:01:33;99480.00;;;-6.00
20058;BMP180;10189;49.546;7.906;2022-12-18T00:04:03;99474.00;;;-5.80
20058;BMP180;10189;49.546;7.906;2022-12-18T00:06:30;99460.00;;;-5.80
20058;BMP180;10189;49.546;7.906;2022-12-18T00:08:59;99458.00;;;-5.70
20058;BMP180;10189;49.546;7.906;2022-12-18T00:11:28;99461.00;;;-5.50
20058;BMP180;10189;49.546;7.906;2022-12-18T00:13:58;99453.00;;;-5.40
20058;BMP180;10189;49.546;7.906;2022-12-18T00:16:26;99441.00;;;-5.40
20058;BMP180;10189;49.546;7.906;2022-12-18T00:18:56;99449.00;;;-5.20
20058;BMP180;10189;49.546;7.906;2022-12-18T00:21:22;99466.00;;;-5.20
20058;BMP180;10189;49.546;7.906;2022-12-18T00:23:49;99454.00;;;-5.20
20058;BMP180;10189;49.546;7.906;2022-12-18T00:26:22;99457.00;;;-5.10
20058;BMP180;10189;49.546;7.906;2022-12-18T00:28:52;99446.00;;;-5.00
20058;BMP180;10189;49.546;7.906;2022-12-18T00:31:23;99452.00;;;-4.90
20058;BMP180;10189;49.546;7.906;2022-12-18T00:33:55;99444.00;;;-4.80
20058;BMP180;10189;49.546;7.906;2022-12-18T00:36:28;99448.00;;;-4.80
20058;BMP180;10189;49.546;7.906;2022-12-18T00:38:56;99438.00;;;-4.70
20058;BMP180;10189;49.546;7.906;2022-12-18T00:41:23;99440.00;;;-4.70
20058;BMP180;10189;49.546;7.906;2022-12-18T00:44:12;99439.00;;;-4.70
20058;BMP180;10189;49.546;7.906;2022-12-18T00:46:39;99440.00;;;-4.60
20058;BMP180;10189;49.546;7.906;2022-12-18T00:49:05;99440.00;;;-4.70
20058;BMP180;10189;49.546;7.906;2022-12-18T00:51:31;99432.00;;;-4.60
20058;BMP180;10189;49.546;7.906;2022-12-18T00:53:57;99434.00;;;-4.60
20058;BMP180;10189;49.546;7.906;2022-12-18T00:56:24;99445.00;;;-4.50
20058;BMP180;10189;49.546;7.906;2022-12-18T00:58:50;99438.00;;;-4.50
20058;BMP180;10189;49.546;7.906;2022-12-18T01:01:17;99443.00;;;-4.50
20058;BMP180;10189;49.546;7.906;2022-12-18T01:03:43;99451.00;;;-4.50
20058;BMP180;10189;49.546;7.906;2022-12-18T01:06:13;99442.00;;;-4.50
20058;BMP180;10189;49.546;7.906;2022-12-18T01:08:39;99436.00;;;-4.50
20058;BMP180;10189;49.546;7.906;2022-12-18T01:11:11;99434.00;;;-4.50
20058;BMP180;10189;49.546;7.906;2022-12-18T01:13:38;99429.00;;;-4.50
20058;BMP180;10189;49.546;7.906;2022-12-18T01:16:05;99426.00;;;-4.40
20058;BMP180;10189;49.546;7.906;2022-12-18T01:18:31;99431.00;;;-4.40
20058;BMP180;10189;49.546;7.906;2022-12-18T01:20:58;99444.00;;;-4.40
20058;BMP180;10189;49.546;7.906;2022-12-18T01:23:24;99409.00;;;-4.30
20058;BMP180;10189;49.546;7.906;2022-12-18T01:25:52;99400.00;;;-4.30
20058;BMP180;10189;49.546;7.906;2022-12-18T01:28:18;99431.00;;;-4.30
20058;BMP180;10189;49.546;7.906;2022-12-18T01:30:44;99435.00;;;-4.40
20058;BMP180;10189;49.546;7.906;2022-12-18T01:33:10;99424.00;;;-4.50
20058;BMP180;10189;49.546;7.906;2022-12-18T01:35:41;99441.00;;;-4.50
20058;BMP180;10189;49.546;7.906;2022-12-18T01:38:07;99443.00;;;-4.40
20058;BMP180;10189;49.546;7.906;2022-12-18T01:40:34;99436.00;;;-4.50
20058;BMP180;10189;49.546;7.906;2022-12-18T01:43:00;99440.00;;;-4.40
20058;BMP180;10189;49.546;7.906;2022-12-18T01:45:31;99442.00;;;-4.50
20058;BMP180;10189;49.546;7.906;2022-12-18T01:48:07;99442.00;;;-4.50
20058;BMP180;10189;49.546;7.906;2022-12-18T01:50:41;99443.00;;;-4.50
20058;BMP180;10189;49.546;7.906;2022-12-18T01:53:17;99436.00;;;-4.30
20058;BMP180;10189;49.546;7.906;2022-12-18T01:55:57;99447.00;;;-4.40
20058;BMP180;10189;49.546;7.906;2022-12-18T02:01:14;99468.00;;;-4.30
20058;BMP180;10189;49.546;7.906;2022-12-18T02:03:44;99475.00;;;-4.40
20058;BMP180;10189;49.546;7.906;2022-12-18T02:06:19;99459.00;;;-4.30
20058;BMP180;10189;49.546;7.906;2022-12-18T02:12:05;99460.00;;;-4.40
20058;BMP180;10189;49.546;7.906;2022-12-18T02:14:49;99451.00;;;-4.40
20058;BMP180;10189;49.546;7.906;2022-12-18T02:17:24;99460.00;;;-4.30
20058;BMP180;10189;49.546;7.906;2022-12-18T02:20:17;99451.00;;;-4.30
20058;BMP180;10189;49.546;7.906;2022-12-18T02:26:06;99432.00;;;-4.20
20058;BMP180;10189;49.546;7.906;2022-12-18T02:28:41;99428.00;;;-4.20
20058;BMP180;10189;49.546;7.906;2022-12-18T02:31:16;99428.00;;;-4.20
20058;BMP180;10189;49.546;7.906;2022-12-18T02:33:45;99456.00;;;-4.30
20058;BMP180;10189;49.546;7.906;2022-12-18T02:36:15;99454.00;;;-4.40
20058;BMP180;10189;49.546;7.906;2022-12-18T02:38:45;99441.00;;;-4.20
20058;BMP180;10189;49.546;7.906;2022-12-18T02:41:15;99447.00;;;-4.40
20058;BMP180;10189;49.546;7.906;2022-12-18T02:43:55;99424.00;;;-4.40
20058;BMP180;10189;49.546;7.906;2022-12-18T02:46:44;99420.00;;;-4.20
20058;BMP180;10189;49.546;7.906;2022-12-18T02:55:36;99401.00;;;-4.50
20058;BMP180;10189;49.546;7.906;2022-12-18T02:58:30;99408.00;;;-4.40
20058;BMP180;10189;49.546;7.906;2022-12-18T03:04:08;99437.00;;;-4.50
20058;BMP180;10189;49.546;7.906;2022-12-18T03:06:48;99427.00;;;-4.50
20058;BMP180;10189;49.546;7.906;2022-12-18T03:09:21;99425.00;;;-4.30
20058;BMP180;10189;49.546;7.906;2022-12-18T03:11:55;99421.00;;;-4.30
20058;BMP180;10189;49.546;7.906;2022-12-18T03:14:43;99421.00;;;-4.30
20058;BMP180;10189;49.546;7.906;2022-12-18T03:17:17;99418.00;;;-4.30
20058;BMP180;10189;49.546;7.906;2022-12-18T03:19:47;99419.00;;;-4.30
20058;BMP180;10189;49.546;7.906;2022-12-18T03:22:16;99419.00;;;-4.20
20058;BMP180;10189;49.546;7.906;2022-12-18T03:24:48;99429.00;;;-4.30
20058;BMP180;10189;49.546;7.906;2022-12-18T03:27:20;99412.00;;;-4.20
20058;BMP180;10189;49.546;7.906;2022-12-18T03:29:59;99419.00;;;-4.40
20058;BMP180;10189;49.546;7.906;2022-12-18T03:32:50;99416.00;;;-4.40
20058;BMP180;10189;49.546;7.906;2022-12-18T03:35:27;99432.00;;;-4.40
20058;BMP180;10189;49.546;7.906;2022-12-18T03:37:55;99426.00;;;-4.40
20058;BMP180;10189;49.546;7.906;2022-12-18T03:40:37;99411.00;;;-4.30
20058;BMP180;10189;49.546;7.906;2022-12-18T03:43:18;99415.00;;;-4.40
20058;BMP180;10189;49.546;7.906;2022-12-18T03:46:11;99418.00;;;-4.50
20058;BMP180;10189;49.546;7.906;2022-12-18T03:48:48;99416.00;;;-4.40
20058;BMP180;10189;49.546;7.906;2022-12-18T03:51:36;99426.00;;;-4.50
20058;BMP180;10189;49.546;7.906;2022-12-18T03:54:05;99425.00;;;-4.40
20058;BMP180;10189;49.546;7.906;2022-12-18T03:56:45;99430.00;;;-4.40
20058;BMP180;10189;49.546;7.906;2022-12-18T03:59:16;99427.00;;;-4.50
20058;BMP180;10189;49.546;7.906;2022-12-18T04:01:49;99416.00;;;-4.30
20058;BMP180;10189;49.546;7.906;2022-12-18T04:04:18;99419.00;;;-4.40
20058;BMP180;10189;49.546;7.906;2022-12-18T04:06:48;99417.00;;;-4.30
20058;BMP180;10189;49.546;7.906;2022-12-18T04:09:19;99424.00;;;-4.40
20058;BMP180;10189;49.546;7.906;2022-12-18T04:11:47;99422.00;;;-4.50
20058;BMP180;10189;49.546;7.906;2022-12-18T04:14:14;99431.00;;;-4.60
20058;BMP180;10189;49.546;7.906;2022-12-18T04:16:41;99420.00;;;-4.60
20058;BMP180;10189;49.546;7.906;2022-12-18T04:19:10;99418.00;;;-4.60
20058;BMP180;10189;49.546;7.906;2022-12-18T04:21:40;99422.00;;;-4.60
20058;BMP180;10189;49.546;7.906;2022-12-18T04:24:09;99426.00;;;-4.40
20058;BMP180;10189;49.546;7.906;2022-12-18T04:26:38;99426.00;;;-4.50
20058;BMP180;10189;49.546;7.906;2022-12-18T04:29:21;99419.00;;;-4.40
20058;BMP180;10189;49.546;7.906;2022-12-18T04:31:47;99417.00;;;-4.40
20058;BMP180;10189;49.546;7.906;2022-12-18T04:34:13;99407.00;;;-4.50
20058;BMP180;10189;49.546;7.906;2022-12-18T04:36:48;99421.00;;;-4.60
20058;BMP180;10189;49.546;7.906;2022-12-18T04:39:14;99412.00;;;-4.50
20058;BMP180;10189;49.546;7.906;2022-12-18T04:41:41;99408.00;;;-4.50
20058;BMP180;10189;49.546;7.906;2022-12-18T04:44:08;99407.00;;;-4.60
20058;BMP180;10189;49.546;7.906;2022-12-18T04:46:34;99392.00;;;-4.70
20058;BMP180;10189;49.546;7.906;2022-12-18T04:49:00;99414.00;;;-4.60
20058;BMP180;10189;49.546;7.906;2022-12-18T04:51:26;99421.00;;;-4.60
20058;BMP180;10189;49.546;7.906;2022-12-18T04:53:53;99421.00;;;-4.60
20058;BMP180;10189;49.546;7.906;2022-12-18T04:56:19;99431.00;;;-4.70
20058;BMP180;10189;49.546;7.906;2022-12-18T04:58:45;99415.00;;;-4.50
20058;BMP180;10189;49.546;7.906;2022-12-18T05:01:16;99427.00;;;-4.50
20058;BMP180;10189;49.546;7.906;2022-12-18T05:03:42;99428.00;;;-4.60
20058;BMP180;10189;49.546;7.906;2022-12-18T05:06:09;99437.00;;;-4.60
20058;BMP180;10189;49.546;7.906;2022-12-18T05:08:35;99416.00;;;-4.50
20058;BMP180;10189;49.546;7.906;2022-12-18T05:11:10;99420.00;;;-4.50
20058;BMP180;10189;49.546;7.906;2022-12-18T05:13:37;99420.00;;;-4.60
20058;BMP180;10189;49.546;7.906;2022-12-18T05:16:04;99424.00;;;-4.50
20058;BMP180;10189;49.546;7.906;2022-12-18T05:18:30;99407.00;;;-4.60
20058;BMP180;10189;49.546;7.906;2022-12-18T05:20:57;99408.00;;;-4.50
20058;BMP180;10189;49.546;7.906;2022-12-18T05:23:24;99415.00;;;-4.60
20058;BMP180;10189;49.546;7.906;2022-12-18T05:25:59;99412.00;;;-4.50
20058;BMP180;10189;49.546;7.906;2022-12-18T05:28:28;99414.00;;;-4.50
20058;BMP180;10189;49.546;7.906;2022-12-18T05:30:57;99411.00;;;-4.40
20058;BMP180;10189;49.546;7.906;2022-12-18T05:33:26;99411.00;;;-4.50
20058;BMP180;10189;49.546;7.906;2022-12-18T05:35:55;99419.00;;;-4.50
20058;BMP180;10189;49.546;7.906;2022-12-18T05:38:24;99415.00;;;-4.60
20058;BMP180;10189;49.546;7.906;2022-12-18T05:40:51;99415.00;;;-4.70
20058;BMP180;10189;49.546;7.906;2022-12-18T05:43:18;99419.00;;;-4.70
20058;BMP180;10189;49.546;7.906;2022-12-18T05:45:45;99414.00;;;-4.60
20058;BMP180;10189;49.546;7.906;2022-12-18T05:48:12;99419.00;;;-4.60
20058;BMP180;10189;49.546;7.906;2022-12-18T05:50:39;99418.00;;;-4.70
20058;BMP180;10189;49.546;7.906;2022-12-18T05:53:07;99423.00;;;-4.60
20058;BMP180;10189;49.546;7.906;2022-12-18T05:55:35;99436.00;;;-4.70
20058;BMP180;10189;49.546;7.906;2022-12-18T05:58:02;99439.00;;;-4.80
20058;BMP180;10189;49.546;7.906;2022-12-18T06:00:30;99444.00;;;-4.70
20058;BMP180;10189;49.546;7.906;2022-12-18T06:02:58;99440.00;;;-4.70
20058;BMP180;10189;49.546;7.906;2022-12-18T06:05:25;99443.00;;;-4.70
20058;BMP180;10189;49.546;7.906;2022-12-18T06:07:51;99444.00;;;-4.70
20058;BMP180;10189;49.546;7.906;2022-12-18T06:10:17;99449.00;;;-4.60
20058;BMP180;10189;49.546;7.906;2022-12-18T06:12:43;99447.00;;;-4.70
20058;BMP180;10189;49.546;7.906;2022-12-18T06:15:10;99444.00;;;-4.70
20058;BMP180;10189;49.546;7.906;2022-12-18T06:17:36;99460.00;;;-4.80
20058;BMP180;10189;49.546;7.906;2022-12-18T06:20:04;99455.00;;;-4.80
20058;BMP180;10189;49.546;7.906;2022-12-18T06:22:33;99468.00;;;-4.80
20058;BMP180;10189;49.546;7.906;2022-12-18T06:25:00;99469.00;;;-4.80
20058;BMP180;10189;49.546;7.906;2022-12-18T06:27:26;99490.00;;;-4.80
20058;BMP180;10189;49.546;7.906;2022-12-18T06:29:52;99498.00;;;-4.90
20058;BMP180;10189;49.546;7.906;2022-12-18T06:32:18;99486.00;;;-4.90
20058;BMP180;10189;49.546;7.906;2022-12-18T06:34:44;99493.00;;;-5.00
20058;BMP180;10189;49.546;7.906;2022-12-18T06:37:09;99488.00;;;-5.00
20058;BMP180;10189;49.546;7.906;2022-12-18T06:39:35;99475.00;;;-5.10
20058;BMP180;10189;49.546;7.906;2022-12-18T06:42:01;99473.00;;;-5.10
20058;BMP180;10189;49.546;7.906;2022-12-18T06:44:28;99468.00;;;-5.10
20058;BMP180;10189;49.546;7.906;2022-12-18T06:46:54;99481.00;;;-4.90
20058;BMP180;10189;49.546;7.906;2022-12-18T06:49:20;99477.00;;;-4.90
20058;BMP180;10189;49.546;7.906;2022-12-18T06:51:46;99468.00;;;-4.90
20058;BMP180;10189;49.546;7.906;2022-12-18T06:54:13;99468.00;;;-4.90
20058;BMP180;10189;49.546;7.906;2022-12-18T06:56:38;99467.00;;;-5.00
20058;BMP180;10189;49.546;7.906;2022-12-18T06:59:04;99467.00;;;-5.00
20058;BMP180;10189;49.546;7.906;2022-12-18T07:01:30;99458.00;;;-4.90
20058;BMP180;10189;49.546;7.906;2022-12-18T07:03:57;99466.00;;;-4.90
20058;BMP180;10189;49.546;7.906;2022-12-18T07:06:25;99461.00;;;-4.80
20058;BMP180;10189;49.546;7.906;2022-12-18T07:08:53;99456.00;;;-4.80
20058;BMP180;10189;49.546;7.906;2022-12-18T07:11:20;99463.00;;;-4.90
20058;BMP180;10189;49.546;7.906;2022-12-18T07:13:46;99480.00;;;-4.90
20058;BMP180;10189;49.546;7.906;2022-12-18T07:16:19;99461.00;;;-4.80
20058;BMP180;10189;49.546;7.906;2022-12-18T07:18:45;99466.00;;;-4.80
20058;BMP180;10189;49.546;7.906;2022-12-18T07:21:15;99457.00;;;-4.90
20058;BMP180;10189;49.546;7.906;2022-12-18T07:23:42;99468.00;;;-4.80
20058;BMP180;10189;49.546;7.906;2022-12-18T07:26:11;99470.00;;;-4.80
20058;BMP180;10189;49.546;7.906;2022-12-18T07:28:39;99487.00;;;-4.90
20058;BMP180;10189;49.546;7.906;2022-12-18T07:31:09;99483.00;;;-4.90
20058;BMP180;10189;49.546;7.906;2022-12-18T07:33:35;99492.00;;;-4.90
20058;BMP180;10189;49.546;7.906;2022-12-18T07:36:06;99492.00;;;-4.70
20058;BMP180;10189;49.546;7.906;2022-12-18T07:38:34;99493.00;;;-4.70
20058;BMP180;10189;49.546;7.906;2022-12-18T07:41:10;99489.00;;;-4.60
20058;BMP180;10189;49.546;7.906;2022-12-18T07:43:36;99485.00;;;-4.50
20058;BMP180;10189;49.546;7.906;2022-12-18T07:46:04;99486.00;;;-4.40
20058;BMP180;10189;49.546;7.906;2022-12-18T07:48:30;99486.00;;;-4.40
20058;BMP180;10189;49.546;7.906;2022-12-18T07:51:01;99490.00;;;-4.30
20058;BMP180;10189;49.546;7.906;2022-12-18T07:53:27;99480.00;;;-4.20
20058;BMP180;10189;49.546;7.906;2022-12-18T07:55:58;99484.00;;;-4.20
20058;BMP180;10189;49.546;7.906;2022-12-18T07:58:24;99481.00;;;-4.10
20058;BMP180;10189;49.546;7.906;2022-12-18T08:00:50;99478.00;;;-4.10
20058;BMP180;10189;49.546;7.906;2022-12-18T08:03:16;99468.00;;;-4.00
20058;BMP180;10189;49.546;7.906;2022-12-18T08:05:42;99473.00;;;-4.00
20058;BMP180;10189;49.546;7.906;2022-12-18T08:08:07;99484.00;;;-3.90
20058;BMP180;10189;49.546;7.906;2022-12-18T08:10:33;99477.00;;;-3.80
20058;BMP180;10189;49.546;7.906;2022-12-18T08:12:59;99478.00;;;-3.80
20058;BMP180;10189;49.546;7.906;2022-12-18T08:15:25;99468.00;;;-3.80
20058;BMP180;10189;49.546;7.906;2022-12-18T08:17:51;99471.00;;;-3.80
20058;BMP180;10189;49.546;7.906;2022-12-18T08:20:17;99466.00;;;-3.70
20058;BMP180;10189;49.546;7.906;2022-12-18T08:22:44;99460.00;;;-3.60
20058;BMP180;10189;49.546;7.906;2022-12-18T08:25:10;99472.00;;;-4.00
20058;BMP180;10189;49.546;7.906;2022-12-18T08:27:36;99465.00;;;-3.80
20058;BMP180;10189;49.546;7.906;2022-12-18T08:30:04;99453.00;;;-3.60
20058;BMP180;10189;49.546;7.906;2022-12-18T08:32:30;99454.00;;;-3.70
20058;BMP180;10189;49.546;7.906;2022-12-18T08:34:56;99446.00;;;-3.70
20058;BMP180;10189;49.546;7.906;2022-12-18T08:37:22;99439.00;;;-3.60
20058;BMP180;10189;49.546;7.906;2022-12-18T08:39:47;99441.00;;;-3.60
20058;BMP180;10189;49.546;7.906;2022-12-18T08:42:13;99438.00;;;-3.40
20058;BMP180;10189;49.546;7.906;2022-12-18T08:44:59;99426.00;;;-3.30
20058;BMP180;10189;49.546;7.906;2022-12-18T08:47:25;99417.00;;;-3.30
20058;BMP180;10189;49.546;7.906;2022-12-18T08:49:51;99419.00;;;-3.30
20058;BMP180;10189;49.546;7.906;2022-12-18T08:52:17;99417.00;;;-3.10
20058;BMP180;10189;49.546;7.906;2022-12-18T08:54:43;99411.00;;;-3.00
20058;BMP180;10189;49.546;7.906;2022-12-18T08:57:09;99416.00;;;-3.00
20058;BMP180;10189;49.546;7.906;2022-12-18T08:59:35;99425.00;;;-3.00
20058;BMP180;10189;49.546;7.906;2022-12-18T09:02:01;99407.00;;;-2.90
20058;BMP180;10189;49.546;7.906;2022-12-18T09:04:27;99409.00;;;-2.90
20058;BMP180;10189;49.546;7.906;2022-12-18T09:06:52;99407.00;;;-2.90
20058;BMP180;10189;49.546;7.906;2022-12-18T09:09:18;99415.00;;;-2.80
20058;BMP180;10189;49.546;7.906;2022-12-18T09:11:45;99406.00;;;-2.70
20058;BMP180;10189;49.546;7.906;2022-12-18T09:14:11;99419.00;;;-2.80
20058;BMP180;10189;49.546;7.906;2022-12-18T09:16:37;99426.00;;;-2.70
20058;BMP180;10189;49.546;7.906;2022-12-18T09:19:04;99425.00;;;-2.60
20058;BMP180;10189;49.546;7.906;2022-12-18T09:21:34;99422.00;;;-2.50
20058;BMP180;10189;49.546;7.906;2022-12-18T09:24:00;99425.00;;;-2.40
20058;BMP180;10189;49.546;7.906;2022-12-18T09:26:27;99434.00;;;-2.20
20058;BMP180;10189;49.546;7.906;2022-12-18T09:28:53;99426.00;;;-2.10
20058;BMP180;10189;49.546;7.906;2022-12-18T09:31:22;99427.00;;;-1.90
20058;BMP180;10189;49.546;7.906;2022-12-18T09:33:48;99426.00;;;-1.90
20058;BMP180;10189;49.546;7.906;2022-12-18T09:36:17;99440.00;;;-1.90
20058;BMP180;10189;49.546;7.906;2022-12-18T09:38:43;99447.00;;;-2.00
20058;BMP180;10189;49.546;7.906;2022-12-18T09:44:31;99439.00;;;-1.90
20058;BMP180;10189;49.546;7.906;2022-12-18T09:47:14;99424.00;;;-1.70
20058;BMP180;10189;49.546;7.906;2022-12-18T09:49:48;99435.00;;;-1.60
20058;BMP180;10189;49.546;7.906;2022-12-18T09:52:37;99421.00;;;-1.50
20058;BMP180;10189;49.546;7.906;2022-12-18T09:55:31;99438.00;;;-1.40
20058;BMP180;10189;49.546;7.906;2022-12-18T10:00:36;99447.00;;;-1.70
20058;BMP180;10189;49.546;7.906;2022-12-18T10:03:11;99458.00;;;-1.70
20058;BMP180;10189;49.546;7.906;2022-12-18T10:06:10;99465.00;;;-1.80
20058;BMP180;10189;49.546;7.906;2022-12-18T10:08:52;99443.00;;;-1.80
20058;BMP180;10189;49.546;7.906;2022-12-18T10:14:57;99427.00;;;-1.50
20058;BMP180;10189;49.546;7.906;2022-12-18T10:20:13;99408.00;;;-1.30
20058;BMP180;10189;49.546;7.906;2022-12-18T10:28:18;99391.00;;;-0.80
20058;BMP180;10189;49.546;7.906;2022-12-18T10:30:44;99385.00;;;-0.60
20058;BMP180;10189;49.546;7.906;2022-12-18T10:33:16;99389.00;;;-0.30
20058;BMP180;10189;49.546;7.906;2022-12-18T10:35:43;99382.00;;;-0.20
20058;BMP180;10189;49.546;7.906;2022-12-18T10:40:54;99379.00;;;-0.50
20058;BMP180;10189;49.546;7.906;2022-12-18T10:43:32;99397.00;;;-0.40
20058;BMP180;10189;49.546;7.906;2022-12-18T10:51:30;99402.00;;;-1.20
20058;BMP180;10189;49.546;7.906;2022-12-18T10:54:06;99413.00;;;-1.20
20058;BMP180;10189;49.546;7.906;2022-12-18T10:56:38;99414.00;;;-1.10
20058;BMP180;10189;49.546;7.906;2022-12-18T10:59:08;99425.00;;;-1.20
20058;BMP180;10189;49.546;7.906;2022-12-18T11:01:57;99415.00;;;-0.70
20058;BMP180;10189;49.546;7.906;2022-12-18T11:04:29;99415.00;;;-1.00
20058;BMP180;10189;49.546;7.906;2022-12-18T11:07:04;99429.00;;;-1.40
20058;BMP180;10189;49.546;7.906;2022-12-18T11:09:36;99434.00;;;-1.60
20058;BMP180;10189;49.546;7.906;2022-12-18T11:12:15;99414.00;;;-1.40
20058;BMP180;10189;49.546;7.906;2022-12-18T11:14:48;99403.00;;;-1.30
20058;BMP180;10189;49.546;7.906;2022-12-18T11:17:32;99398.00;;;-1.30
20058;BMP180;10189;49.546;7.906;2022-12-18T11:23:10;99377.00;;;-1.10
20058;BMP180;10189;49.546;7.906;2022-12-18T11:25:37;99383.00;;;-1.00
20058;BMP180;10189;49.546;7.906;2022-12-18T11:28:26;99404.00;;;-1.10
20058;BMP180;10189;49.546;7.906;2022-12-18T11:33:56;99374.00;;;-1.20
20058;BMP180;10189;49.546;7.906;2022-12-18T11:36:29;99384.00;;;-1.40
20058;BMP180;10189;49.546;7.906;2022-12-18T11:39:05;99380.00;;;-1.30
20058;BMP180;10189;49.546;7.906;2022-12-18T11:42:09;99361.00;;;-1.10
20058;BMP180;10189;49.546;7.906;2022-12-18T11:45:01;99363.00;;;-1.20
20058;BMP180;10189;49.546;7.906;2022-12-18T11:48:14;99379.00;;;-1.40
20058;BMP180;10189;49.546;7.906;2022-12-18T11:50:57;99375.00;;;-1.60
20058;BMP180;10189;49.546;7.906;2022-12-18T11:53:28;99374.00;;;-1.60
20058;BMP180;10189;49.546;7.906;2022-12-18T11:56:31;99375.00;;;-1.60
20058;BMP180;10189;49.546;7.906;2022-12-18T11:59:50;99374.00;;;-1.40
20058;BMP180;10189;49.546;7.906;2022-12-18T12:02:37;99366.00;;;-1.30
20058;BMP180;10189;49.546;7.906;2022-12-18T12:05:20;99374.00;;;-1.30
20058;BMP180;10189;49.546;7.906;2022-12-18T12:16:41;99359.00;;;-1.10
20058;BMP180;10189;49.546;7.906;2022-12-18T12:25:39;99351.00;;;-1.10
20058;BMP180;10189;49.546;7.906;2022-12-18T12:39:42;99343.00;;;-1.30
20058;BMP180;10189;49.546;7.906;2022-12-18T12:42:29;99345.00;;;-1.30
20058;BMP180;10189;49.546;7.906;2022-12-18T12:48:56;99331.00;;;-1.40
20058;BMP180;10189;49.546;7.906;2022-12-18T12:51:33;99329.00;;;-1.10
20058;BMP180;10189;49.546;7.906;2022-12-18T12:54:03;99326.00;;;-1.10
20058;BMP180;10189;49.546;7.906;2022-12-18T12:56:41;99319.00;;;-1.00
20058;BMP180;10189;49.546;7.906;2022-12-18T13:02:56;99307.00;;;-0.90
20058;BMP180;10189;49.546;7.906;2022-12-18T13:05:47;99297.00;;;-0.90
20058;BMP180;10189;49.546;7.906;2022-12-18T13:08:34;99295.00;;;-1.00
20058;BMP180;10189;49.546;7.906;2022-12-18T13:11:46;99294.00;;;-0.80
20058;BMP180;10189;49.546;7.906;2022-12-18T13:14:36;99289.00;;;-0.80
20058;BMP180;10189;49.546;7.906;2022-12-18T13:20:02;99287.00;;;-0.90
20058;BMP180;10189;49.546;7.906;2022-12-18T13:22:48;99289.00;;;-0.80
20058;BMP180;10189;49.546;7.906;2022-12-18T13:25:37;99292.00;;;-0.70
20058;BMP180;10189;49.546;7.906;2022-12-18T13:28:08;99289.00;;;-0.70
20058;BMP180;10189;49.546;7.906;2022-12-18T13:36:16;99291.00;;;-0.80
20058;BMP180;10189;49.546;7.906;2022-12-18T13:39:10;99276.00;;;-0.50
20058;BMP180;10189;49.546;7.906;2022-12-18T13:41:36;99269.00;;;-0.50
20058;BMP180;10189;49.546;7.906;2022-12-18T13:47:00;99268.00;;;-0.60
20058;BMP180;10189;49.546;7.906;2022-12-18T13:49:41;99269.00;;;-0.70
20058;BMP180;10189;49.546;7.906;2022-12-18T13:52:28;99265.00;;;-0.60
20058;BMP180;10189;49.546;7.906;2022-12-18T13:54:57;99282.00;;;-0.60
20058;BMP180;10189;49.546;7.906;2022-12-18T13:57:38;99277.00;;;-0.60
20058;BMP180;10189;49.546;7.906;2022-12-18T14:02:49;99259.00;;;-0.50
20058;BMP180;10189;49.546;7.906;2022-12-18T14:05:32;99278.00;;;-0.70
20058;BMP180;10189;49.546;7.906;2022-12-18T14:08:14;99272.00;;;-0.70
20058;BMP180;10189;49.546;7.906;2022-12-18T14:10:47;99273.00;;;-0.70
20058;BMP180;10189;49.546;7.906;2022-12-18T14:13:38;99264.00;;;-0.90
20058;BMP180;10189;49.546;7.906;2022-12-18T14:16:07;99273.00;;;-0.80
20058;BMP180;10189;49.546;7.906;2022-12-18T14:18:43;99285.00;;;-0.80
20058;BMP180;10189;49.546;7.906;2022-12-18T14:21:27;99283.00;;;-0.70
20058;BMP180;10189;49.546;7.906;2022-12-18T14:26:39;99277.00;;;-0.80
20058;BMP180;10189;49.546;7.906;2022-12-18T14:29:26;99270.00;;;-0.80
20058;BMP180;10189;49.546;7.906;2022-12-18T14:32:15;99270.00;;;-0.90
20058;BMP180;10189;49.546;7.906;2022-12-18T14:34:53;99270.00;;;-1.00
20058;BMP180;10189;49.546;7.906;2022-12-18T14:37:26;99274.00;;;-1.00
20058;BMP180;10189;49.546;7.906;2022-12-18T14:39:58;99275.00;;;-1.10
20058;BMP180;10189;49.546;7.906;2022-12-18T14:42:28;99266.00;;;-1.00
20058;BMP180;10189;49.546;7.906;2022-12-18T14:47:59;99268.00;;;-1.10
20058;BMP180;10189;49.546;7.906;2022-12-18T14:50:25;99271.00;;;-1.10
20058;BMP180;10189;49.546;7.906;2022-12-18T14:52:52;99279.00;;;-1.00
20058;BMP180;10189;49.546;7.906;2022-12-18T14:55:21;99279.00;;;-1.10
20058;BMP180;10189;49.546;7.906;2022-12-18T14:57:52;99266.00;;;-1.10
20058;BMP180;10189;49.546;7.906;2022-12-18T15:00:23;99263.00;;;-1.20
20058;BMP180;10189;49.546;7.906;2022-12-18T15:02:54;99269.00;;;-1.20
20058;BMP180;10189;49.546;7.906;2022-12-18T15:05:30;99275.00;;;-1.20
20058;BMP180;10189;49.546;7.906;2022-12-18T15:07:59;99263.00;;;-1.10
20058;BMP180;10189;49.546;7.906;2022-12-18T15:10:33;99271.00;;;-1.20
20058;BMP180;10189;49.546;7.906;2022-12-18T15:20:46;99255.00;;;-1.10
20058;BMP180;10189;49.546;7.906;2022-12-18T15:23:23;99284.00;;;-1.20
20058;BMP180;10189;49.546;7.906;2022-12-18T15:25:57;99285.00;;;-1.30
20058;BMP180;10189;49.546;7.906;2022-12-18T15:28:51;99286.00;;;-1.40
20058;BMP180;10189;49.546;7.906;2022-12-18T15:31:32;99282.00;;;-1.30
20058;BMP180;10189;49.546;7.906;2022-12-18T15:34:18;99285.00;;;-1.20
20058;BMP180;10189;49.546;7.906;2022-12-18T15:36:45;99276.00;;;-1.30
20058;BMP180;10189;49.546;7.906;2022-12-18T15:39:13;99275.00;;;-1.30
20058;BMP180;10189;49.546;7.906;2022-12-18T15:41:39;99285.00;;;-1.40
20058;BMP180;10189;49.546;7.906;2022-12-18T15:44:37;99293.00;;;-1.50
20058;BMP180;10189;49.546;7.906;2022-12-18T15:47:28;99297.00;;;-1.50
20058;BMP180;10189;49.546;7.906;2022-12-18T15:49:54;99300.00;;;-1.40
20058;BMP180;10189;49.546;7.906;2022-12-18T15:52:20;99299.00;;;-1.60
20058;BMP180;10189;49.546;7.906;2022-12-18T15:54:51;99294.00;;;-1.50
20058;BMP180;10189;49.546;7.906;2022-12-18T15:57:35;99279.00;;;-1.40
20058;BMP180;10189;49.546;7.906;2022-12-18T16:00:02;99293.00;;;-1.50
20058;BMP180;10189;49.546;7.906;2022-12-18T16:02:30;99292.00;;;-1.50
20058;BMP180;10189;49.546;7.906;2022-12-18T16:04:56;99286.00;;;-1.40
20058;BMP180;10189;49.546;7.906;2022-12-18T16:07:22;99285.00;;;-1.50
20058;BMP180;10189;49.546;7.906;2022-12-18T16:09:48;99283.00;;;-1.40
20058;BMP180;10189;49.546;7.906;2022-12-18T16:12:19;99274.00;;;-1.40
20058;BMP180;10189;49.546;7.906;2022-12-18T16:14:46;99279.00;;;-1.40
20058;BMP180;10189;49.546;7.906;2022-12-18T16:17:14;99295.00;;;-1.60
20058;BMP180;10189;49.546;7.906;2022-12-18T16:19:39;99288.00;;;-1.60
20058;BMP180;10189;49.546;7.906;2022-12-18T16:22:21;99283.00;;;-1.50
20058;BMP180;10189;49.546;7.906;2022-12-18T16:24:49;99284.00;;;-1.50
20058;BMP180;10189;49.546;7.906;2022-12-18T16:27:15;99286.00;;;-1.60
20058;BMP180;10189;49.546;7.906;2022-12-18T16:29:40;99274.00;;;-1.60